Airfield :
LOGIN :

Register | Disclaimer

   EN    FR    IT 

 










Legend :    VFR   Marginal VFR   IFR   Intensive IFR   Very Intensive IFR
Visi :
Ceiling :
>= 8 km
>= 3000ft
5 to 8 km
1000 to 3000 ft
1500m to 5 km
500 to 1000 ft
800 to 1500m
200 to 500 ft
< 800m
< 200 ft
Symbols :   Thunderstorms  Fog  Heavy snow  Heavy precipitations  Wind > 20 kt
SIGMETs :     Misc.  Thunderstorms  Icing  Turbulence  Mountain Waves  Volcanic Ashes







- Airport Elevation : 1306 ft
- IATA code : ACH


LSZR - Alten Rhein

CURRENT METAR :
  • 202320Z AUTO 09002KT 3600 BR NCD M03/M03 Q1008

EXPIRED METARs :
  • 202250Z AUTO 10002KT 2800 BR NCD M02/M03 Q1008
  • 202220Z AUTO 12003KT 3600 BR NCD M02/M02 Q1008
  • 202150Z AUTO 14002KT 4600 BR NCD M02/M02 Q1008
  • 202120Z AUTO 18002KT 6000 NCD M01/M01 Q1008
  • 202050Z AUTO VRB03KT 7000 FEW011 00/M01 Q1008

TAF TAF LSZR
Valid from the 20 at 15:00 until the 21 at 00:00 UTC


201425Z 2015/2024 VRB03KT 9000 BKN017
BECMG 2017/2020 BKN013
PROB40 2021/2024 4000 BR
ATIS : +41 71 858 51 66
No reported NOTAMs for that airfield.



MET'MAP, your aeronautical weather chart ! - Copyright ORBIFLY December 2007 - Disclaimer

ORBIFLY MET'MAP TEAM :

Programming & Development : Alexandra Zaïnal
Concept & Development : Baudouin d'Aumeries
Co-Development & Prog : Marc-Olivier Méhu
Technical & hardware support : Manuel Goepfert

Contact : metmap@orbifly.com




SOURCES & CREDITS :

   NOAA